• Join FlightAware (Why Join?)
  • Login
  • US Flag 
09:02PM EDT


 

Airport Tracker/Info


-or-


 

Live Flight TrackerFlight Track Log ✈ RPA3159 ✈ 08-Jul-2013 ✈ KBTV - KPHL

Flight Track Log - Related Links

Times and Time Zones

All times are in EDT time to prevent confusion due to time zone crossing. See the RPA3159 flight status page for this flight to view local times or setup timezone preferences in your user account.

Time Position Orientation Groundspeed Altitude Reporting Facility
EDT Latitude Longitude Course Direction KTS MPH feet Rate Location/Type
11:53AM 44.4358 -73.1958 180° South 293 337 3,400  Level Boston Center
11:54AM 44.3672 -73.1950 180° South 257 296 6,100 2,760 Climbing Boston Center
11:55AM 44.3003 -73.2494 210° Southwest 252 290 9,000 1,920 Climbing Boston Center
11:56AM 44.2225 -73.3150 205° Southwest 290 334 10,000 1,380 Climbing Boston Center
11:57AM 44.1514 -73.3747 211° Southwest 301 346 11,800 1,740 Climbing Boston Center
11:58AM 44.0967 -73.4200 211° Southwest 310 357 13,500 2,400 Climbing Boston Center
11:59AM 43.9939 -73.5078 212° Southwest 332 382 16,700 2,580 Climbing Boston Center
12:00PM 43.9097 -73.5756 210° Southwest 346 398 18,700 2,100 Climbing Boston Center
12:01PM 43.8278 -73.6458 212° Southwest 346 398 21,000 1,980 Climbing Boston Center
12:02PM 43.7417 -73.7161 211° Southwest 346 398 22,700 1,380 Climbing Boston Center
12:03PM 43.6744 -73.7692 210° Southwest 352 405 23,800 540 Climbing Boston Center
12:04PM 43.5544 -73.8639 210° Southwest 373 429 24,000 60 Climbing Boston Center
12:05PM 43.4639 -73.9392 211° Southwest 378 435 24,000  Level Boston Center
12:06PM 43.3647 -74.0194 210° Southwest 383 441 24,000  Level Boston Center
12:07PM 43.2742 -74.0911 210° Southwest 383 441 24,000  Level Boston Center
12:08PM 43.1836 -74.1656 211° Southwest 383 441 24,000  Level Boston Center
12:09PM 43.0928 -74.2369 210° Southwest 383 441 24,000  Level Boston Center
12:10PM 43.0039 -74.3111 211° Southwest 383 441 24,000  Level Boston Center
12:11PM 42.9153 -74.3819 210° Southwest 383 441 24,000  Level Boston Center
12:12PM 42.8222 -74.4556 210° Southwest 383 441 24,000  Level Boston Center
12:13PM 42.7336 -74.5261 210° Southwest 383 441 24,000  Level Boston Center
12:14PM 42.6447 -74.5967 210° Southwest 383 441 24,000  Level Boston Center
12:15PM 42.5536 -74.6694 210° Southwest 383 441 24,000 -60 Level Boston Center
12:16PM 42.4817 -74.7233 209° Southwest 383 441 23,900 -600 Descending Boston Center
12:17PM 42.3758 -74.8067 210° Southwest 383 441 22,900 -840 Descending Boston Center
12:19PM 42.2128 -74.9286 209° Southwest 383 441 21,400 -840 Descending New York Center
12:20PM 42.1183 -75.0094 212° Southwest 377 434 20,500 -900 Descending New York Center
12:21PM 42.0347 -75.0767 211° Southwest 366 421 19,700 -780 Descending New York Center
12:22PM 41.9531 -75.1467 213° Southwest 360 414 19,000 -360 Descending New York Center
12:23PM 41.8694 -75.2133 211° Southwest 354 407 19,000 -360 Level New York Center
12:24PM 41.7878 -75.2775 210° Southwest 354 407 18,300 -1,200 Descending New York Center
12:25PM 41.7147 -75.3364 211° Southwest 348 400 16,700 -1,620 Descending New York Center
12:26PM 41.6289 -75.4056 211° Southwest 348 400 15,100 -1,500 Descending New York Center
12:27PM 41.5514 -75.4694 212° Southwest 343 395 13,800 -1,380 Descending New York Center
12:28PM 41.4739 -75.5306 211° Southwest 333 383 12,400 -900 Descending New York Center
12:29PM 41.4072 -75.5839 211° Southwest 333 383 12,000 -240 Descending New York Center
12:30PM 41.3233 -75.6497 211° Southwest 328 377 12,000  Level New York Center
12:31PM 41.2508 -75.6886 202° Southwest 323 372 12,000 -420 Level New York Center
12:32PM 41.1578 -75.6764 174° South 312 359 11,200 -960 Descending New York Center
12:33PM 41.0714 -75.6453 165° South 312 359 10,100 -660 Descending New York Center
12:34PM 40.9850 -75.6169 166° South 317 365 10,000 -60 Descending New York Center
12:35PM 40.9092 -75.5897 165° South 317 365 10,000  Level New York Center
12:36PM 40.8269 -75.5592 164° South 317 365 10,000  Level New York Center
12:37PM 40.7428 -75.5314 166° South 317 365 10,000  Level New York Center
12:38PM 40.6564 -75.5008 165° South 317 365 10,000  Level New York Center
12:39PM 40.5764 -75.4733 165° South 312 359 10,000  Level New York Center
12:40PM 40.5000 -75.4492 166° South 300 345 10,000  Level New York Center
12:41PM 40.4164 -75.4053 158° South 292 336 10,000 -480 Level New York Center
12:42PM 40.3453 -75.3597 154° Southeast 292 336 9,100 -1,320 Descending New York Center
12:43PM 40.2800 -75.3200 155° Southeast 292 336 7,400 -1,080 Descending New York Center
12:44PM 40.2047 -75.2742 155° Southeast 292 336 7,000 -540 Descending New York Center
12:45PM 40.1167 -75.2167 153° Southeast 283 326 6,300 -480 Descending Philadelphia TRACON
12:47PM 40.0500 -75.1667 150° Southeast 282 325 6,000 -180 Descending Philadelphia TRACON
12:48PM 40.0000 -75.1167 143° Southeast 226 260 6,000 -60 Level Philadelphia TRACON
12:49PM 40.0000 -75.0333 90° East 215 247 5,900 -540 Descending Philadelphia TRACON
12:50PM 40.0167 -74.9667 72° East 197 227 5,000 -660 Descending Philadelphia TRACON
12:51PM 40.0167 -74.9000 90° East 200 230 4,600 -600 Descending Philadelphia TRACON
12:51PM 40.0000 -74.8500 114° Southeast 185 213 3,900 -360 Descending Philadelphia TRACON
12:52PM 39.9667 -74.9000 229° Southwest 173 199 4,000 -300 Climbing Philadelphia TRACON
12:53PM 39.9333 -74.9333 217° Southwest 171 197 3,300 -540 Descending Philadelphia TRACON
12:54PM 39.9167 -75.0000 252° West 168 193 3,000 -420 Descending Philadelphia TRACON
12:55PM 39.9167 -75.0500 270° West 168 193 2,500 -540 Descending Philadelphia TRACON